Aviation Digital Data Service (ADDS)

Output produced by METARs form (0934 UTC 17 November 2018)
found at http://www.aviationweather.gov/metar/data/
 
TAF TTPP 170400Z 1706/1806 00000KT 9999 FEW016 
     PROB40 
     TEMPO 1708/1712 5000 SHRA SCT015 
     BECMG 1712/1714 10014KT SCT020
       
TAF TTCP 170400Z 1706/1806 10005KT 9999 FEW016 
     BECMG 1711/1713 08014KT FEW020